YMMLYAYE

Guest
Details From YMML - Melbourne Intl
To YAYE - Ayers Rock
Flight Number -
Tags decoded
Created
Modified
Stats Distance 1,031 nm / 1,910 km
Max Altitude 0 ft / 0 m
Waypoints 6
Social Downloads 1
Likes 0
Share VATSIM

Download

Looking for another format? Having issues loading an existing format? Contact us
Advertisement - Login to hide

Notes

Requested: YMML KEPPA ROBET KABEK WR YAYE

Route

YMML KEPPA ROBET KABEK WR YAYE

ID Type Via Altitude Latitude Longitude Leg Dist Tot Dist Heading (true) Name
O YMML APT - 0 ft / 0 m -37.66530˚ 144.83667˚ - 0 nm - Melbourne Intl
KEPPA FIX - 0 ft / 0 m -36.79667˚ 143.97583˚ 66 nm 66 nm 321° / 322° -
ROBET FIX - 0 ft / 0 m -35.75643˚ 142.51624˚ 94 nm 160 nm 311° / 312° -
KABEK FIX - 0 ft / 0 m -33.38861˚ 139.41111˚ 209 nm 370 nm 312° / 314° -
WR NDB - 0 ft / 0 m -31.14333˚ 136.80833˚ 188 nm 558 nm 315° / 316° WOOMERA NDB
O YAYE APT - 0 ft / 0 m -25.18556˚ 130.97664˚ 472 nm 1031 nm 318° / 321° Ayers Rock

Altitude Profile

Advertisement - Login to hide

Weather


0- 5 10 15 20 25 30 35+ Temperature / ° C

Clouds and Precipitation
Forecast for 2017-12-16 06:00 UTC. Updated 15 minutes ago

Ground ~20,000 ft ~40,000 ft Winds

YMML

Details ICAO YMML (MEL)
Name Melbourne Intl
Region Australia
Timezone Australia/Melbourne (UTC+11.0)
Stats Elevation 433 ft / 132 m (AMSL)
Location -37.665301° 144.836668°
Runways 2
Magnetic Variation 11.504° E

METAR

YMML 160500Z 18014KT 9999 FEW042 BKN300 23/10 Q1014 NOSIG

Decode

TAF

TAF YMML 152311Z 1600/1706 18010KT 9999 FEW035 FM160500 17015KT CAVOK FM161000 17010KT CAVOK FM161500 22006KT 9999 SCT012 FM162100 17012KT 9999 BKN020 FM170000 17014KT 9999 FEW030 TEMPO 1618/1622 9999 BKN012

Decode

Departure Runways

ID Width Length Bearing (true) Bearing (mag) Surface Threshold Offset Overrun Length
09 148 ft / 45 m 7,494 ft / 2,284 m 94.01° 82.51° Asphalt 0 ft / 0 m 0 ft / 0 m
16 148 ft / 45 m 12,008 ft / 3,660 m 171.02° 159.52° Asphalt 98 ft / 30 m 0 ft / 0 m
27 148 ft / 45 m 7,494 ft / 2,284 m 274.00° 262.50° Asphalt 0 ft / 0 m 0 ft / 0 m
34 148 ft / 45 m 12,008 ft / 3,660 m 351.01° 339.51° Asphalt 98 ft / 30 m 0 ft / 0 m

YAYE

Details ICAO YAYE (AYQ)
Name Ayers Rock
Region Australia
Timezone Australia/Darwin (UTC+9.5)
Stats Elevation 1,625 ft / 495 m (AMSL)
Location -25.185555° 130.976642°
Runways 1
Magnetic Variation 3.930° E

METAR

YAYE 160500Z AUTO 32008KT 240V340 9999 // NCD 40/07 Q1009

Decode

TAF

Not found

Destination Runways

ID Width Length Bearing (true) Bearing (mag) Surface Threshold Offset Overrun Length
13 98 ft / 30 m 8,526 ft / 2,599 m 129.70° 125.77° Asphalt 0 ft / 0 m 0 ft / 0 m
31 98 ft / 30 m 8,526 ft / 2,599 m 309.70° 305.77° Asphalt 0 ft / 0 m 0 ft / 0 m

Popular Alternatives